createdAt,value
2023-03-26T05:31:24.201Z,8.10
2023-03-26T05:36:26.296Z,8.10
2023-03-26T05:41:28.159Z,8.10
2023-03-26T05:46:30.047Z,8.10
2023-03-26T05:51:31.880Z,8.00
2023-03-26T05:56:33.717Z,8.00
2023-03-26T06:01:35.602Z,7.90
2023-03-26T06:06:37.470Z,8.00
2023-03-26T06:11:41.877Z,8.00
2023-03-26T06:16:43.762Z,8.00
2023-03-26T06:21:45.852Z,8.10
2023-03-26T06:26:47.715Z,8.10
2023-03-26T06:31:49.532Z,8.10
2023-03-26T06:36:52.752Z,8.10
2023-03-26T06:41:54.640Z,8.10
2023-03-26T06:46:56.513Z,8.10
2023-03-26T06:51:58.371Z,8.10
2023-03-26T06:57:00.428Z,8.10
2023-03-26T07:02:02.249Z,8.20
2023-03-26T07:07:04.393Z,8.20
2023-03-26T07:12:06.446Z,8.20
2023-03-26T07:17:08.769Z,8.10
2023-03-26T07:22:21.196Z,8.10
2023-03-26T07:27:58.891Z,8.10
2023-03-26T07:33:14.835Z,8.10
2023-03-26T07:38:41.862Z,8.10
2023-03-26T07:43:59.101Z,8.20
2023-03-26T07:49:01.956Z,8.20
2023-03-26T07:54:04.270Z,8.20
2023-03-26T07:59:33.717Z,8.30
2023-03-26T08:04:43.004Z,8.30
2023-03-26T08:10:05.230Z,8.20
2023-03-26T08:15:18.500Z,8.20
2023-03-26T08:20:41.591Z,8.30
2023-03-26T08:25:56.605Z,8.30
2023-03-26T08:31:04.275Z,8.40
2023-03-26T08:36:07.250Z,8.30
2023-03-26T08:41:12.198Z,8.40
2023-03-26T08:46:30.407Z,8.40
2023-03-26T08:51:51.087Z,8.40
2023-03-26T08:56:56.184Z,8.40
2023-03-26T09:02:27.622Z,8.40
2023-03-26T09:07:38.667Z,8.40
2023-03-26T09:13:04.745Z,8.50
2023-03-26T09:18:25.052Z,8.50
2023-03-26T09:23:49.783Z,8.60
2023-03-26T09:29:09.055Z,8.60
2023-03-26T09:34:31.729Z,8.60
2023-03-26T09:39:53.178Z,8.60
2023-03-26T09:45:06.291Z,8.50
2023-03-26T09:50:55.834Z,8.50
2023-03-26T09:56:26.463Z,8.40
2023-03-26T10:01:42.820Z,8.40
2023-03-26T10:06:52.591Z,8.50
2023-03-26T10:12:03.420Z,8.50
2023-03-26T10:17:08.195Z,8.50
2023-03-26T10:22:47.625Z,8.50
2023-03-26T10:27:59.644Z,8.50
2023-03-26T10:33:19.790Z,8.50
2023-03-26T10:38:45.705Z,8.50
2023-03-26T10:44:12.607Z,8.60
2023-03-26T10:49:26.096Z,8.60
2023-03-26T10:54:38.266Z,8.60
2023-03-26T10:59:40.216Z,8.60
2023-03-26T11:05:07.180Z,8.70
2023-03-26T11:10:14.800Z,8.70
2023-03-26T11:15:16.923Z,8.70
2023-03-26T11:20:36.772Z,8.80
2023-03-26T11:26:17.399Z,8.70
2023-03-26T11:31:40.465Z,8.80
2023-03-26T11:36:49.058Z,8.70
2023-03-26T11:41:53.504Z,8.70
2023-03-26T11:47:04.455Z,8.80
2023-03-26T11:52:07.592Z,8.80
2023-03-26T11:57:21.339Z,8.90
2023-03-26T12:02:29.682Z,8.90
2023-03-26T12:07:33.691Z,8.90
2023-03-26T12:12:39.308Z,9.10
2023-03-26T12:17:42.215Z,9.10
2023-03-26T12:22:47.789Z,9.20
2023-03-26T12:27:49.751Z,9.20
2023-03-26T12:32:53.503Z,9.20
2023-03-26T12:38:35.704Z,9.20
2023-03-26T12:44:54.654Z,9.20
2023-03-26T12:49:06.454Z,9.20
2023-03-26T12:54:39.136Z,9.20
2023-03-26T12:59:52.305Z,9.20
2023-03-26T13:05:31.424Z,9.10
2023-03-26T13:10:39.631Z,9.00
2023-03-26T13:15:52.696Z,9.00
2023-03-26T13:21:23.743Z,8.90
2023-03-26T13:26:44.264Z,8.90
2023-03-26T13:31:59.767Z,8.80
2023-03-26T13:37:25.018Z,8.80
2023-03-26T13:42:48.355Z,8.80
2023-03-26T13:47:54.119Z,8.80
2023-03-26T13:53:03.283Z,8.70
2023-03-26T13:58:12.451Z,8.60
2023-03-26T14:03:39.382Z,8.60
2023-03-26T14:08:45.332Z,8.50
2023-03-26T14:13:52.147Z,8.40
2023-03-26T14:19:15.770Z,8.30
2023-03-26T14:24:32.766Z,8.20
2023-03-26T14:29:56.771Z,8.10
2023-03-26T14:35:26.080Z,8.10
2023-03-26T14:40:47.562Z,8.20
2023-03-26T14:45:58.631Z,8.20
2023-03-26T14:51:07.487Z,8.20
2023-03-26T14:56:24.607Z,8.10
2023-03-26T15:01:57.013Z,8.10
2023-03-26T15:07:35.138Z,8.10
2023-03-26T15:13:14.635Z,8.10
2023-03-26T15:18:31.034Z,8.20
2023-03-26T15:23:52.954Z,8.20
2023-03-26T15:29:03.471Z,8.20
2023-03-26T15:34:33.764Z,8.20
2023-03-26T15:39:58.620Z,8.20
2023-03-26T15:45:13.254Z,8.10
2023-03-26T15:50:32.445Z,8.10
2023-03-26T15:55:41.450Z,8.10
2023-03-26T16:01:07.579Z,8.10
2023-03-26T16:06:20.592Z,8.10
2023-03-26T16:11:50.620Z,8.00
2023-03-26T16:16:59.232Z,7.90
2023-03-26T16:22:03.025Z,7.80
2023-03-26T16:27:15.712Z,7.80
2023-03-26T16:32:41.702Z,7.80
2023-03-26T16:37:51.413Z,7.70
2023-03-26T16:43:02.391Z,7.60
2023-03-26T16:48:14.734Z,7.50
2023-03-26T16:53:42.901Z,7.50
2023-03-26T16:59:07.813Z,7.50
2023-03-26T17:04:27.333Z,7.40
2023-03-26T17:09:51.715Z,7.30
2023-03-26T17:14:59.540Z,7.20
2023-03-26T17:20:33.128Z,7.10
2023-03-26T17:25:45.044Z,7.10
2023-03-26T17:30:52.960Z,7.00
2023-03-26T17:36:13.111Z,7.00
2023-03-26T17:41:56.252Z,7.00
2023-03-26T17:47:00.164Z,7.00
2023-03-26T17:52:06.288Z,6.90
2023-03-26T17:57:15.907Z,6.80
2023-03-26T18:02:21.783Z,6.80
2023-03-26T18:07:32.631Z,6.70
2023-03-26T18:12:48.383Z,6.60
